Time;durP1;ratioP1;P1;durP2;ratioP2;P2;SDS_P1;SDS_P2;PMS_P1;PMS_P2;Temp;Humidity;BMP_temperature;BMP_pressure;BME280_temperature;BME280_humidity;BME280_pressure;Samples;Min_cycle;Max_cycle;Signal;HPM_P1;HPM_P2
2021/10/09 00:02:20;;;;;;;4.32;2.38;;;;;;;;;;5027977;28;20531;-48
2021/10/09 00:04:46;;;;;;;12.13;5.80;;;;;;;;;;5028769;28;20135;-47
2021/10/09 00:07:12;;;;;;;12.85;6.88;;;;;;;;;;5028074;28;20029;-48
2021/10/09 00:09:39;;;;;;;3.22;1.95;;;;;;;;;;5027872;28;20037;-48
2021/10/09 00:12:05;;;;;;;7.95;3.90;;;;;;;;;;5027034;28;20612;-48
2021/10/09 00:14:31;;;;;;;5.78;2.88;;;;;;;;;;5027120;28;20036;-48
2021/10/09 00:16:57;;;;;;;6.03;3.38;;;;;;;;;;5045456;28;20032;-48
2021/10/09 00:19:23;;;;;;;5.97;2.58;;;;;;;;;;5054224;28;20385;-48
2021/10/09 00:21:49;;;;;;;4.95;3.08;;;;;;;;;;5054176;28;20032;-47
2021/10/09 00:24:16;;;;;;;8.10;4.65;;;;;;;;;;5053741;28;20123;-47
2021/10/09 00:26:42;;;;;;;6.22;2.63;;;;;;;;;;5054205;28;20171;-47
2021/10/09 00:29:09;;;;;;;11.35;5.75;;;;;;;;;;5054057;28;20421;-48
2021/10/09 00:31:35;;;;;;;3.95;2.38;;;;;;;;;;5054133;28;20025;-47
2021/10/09 00:34:04;;;;;;;43.60;22.38;;;;;;;;;;5053603;28;20051;-47
2021/10/09 00:36:30;;;;;;;7.85;3.30;;;;;;;;;;5053835;28;20025;-48
2021/10/09 00:38:56;;;;;;;6.70;3.80;;;;;;;;;;5053921;28;20028;-47
2021/10/09 00:41:23;;;;;;;17.95;8.07;;;;;;;;;;5053959;28;20028;-47
2021/10/09 00:43:49;;;;;;;7.65;4.10;;;;;;;;;;5054045;28;20030;-47
2021/10/09 00:46:15;;;;;;;8.68;3.58;;;;;;;;;;5049761;28;20111;-48
2021/10/09 00:48:41;;;;;;;7.40;3.63;;;;;;;;;;5053982;28;20041;-47
2021/10/09 00:51:07;;;;;;;4.82;3.40;;;;;;;;;;5053419;28;20036;-48
2021/10/09 00:53:34;;;;;;;14.70;7.65;;;;;;;;;;5052176;28;20408;-48
2021/10/09 00:56:03;;;;;;;7.18;4.22;;;;;;;;;;5053175;28;20025;-50
2021/10/09 00:58:29;;;;;;;22.92;11.95;;;;;;;;;;5053392;28;20116;-47
2021/10/09 01:00:56;;;;;;;8.85;5.25;;;;;;;;;;5053843;28;20056;-47
2021/10/09 01:03:22;;;;;;;8.68;5.43;;;;;;;;;;5054308;28;20511;-50
2021/10/09 01:05:49;;;;;;;12.25;7.32;;;;;;;;;;5054589;28;20029;-49
2021/10/09 01:08:17;;;;;;;10.25;6.22;;;;;;;;;;5054458;28;20469;-49
2021/10/09 01:10:46;;;;;;;10.48;6.50;;;;;;;;;;5054520;28;20044;-49
2021/10/09 01:13:12;;;;;;;18.95;10.73;;;;;;;;;;5054180;28;20029;-49
2021/10/09 01:15:38;;;;;;;18.27;9.93;;;;;;;;;;5054337;28;20079;-50
2021/10/09 01:18:09;;;;;;;13.20;7.47;;;;;;;;;;5054371;28;20439;-49
2021/10/09 01:20:50;;;;;;;18.02;10.48;;;;;;;;;;5054069;28;20044;-49
2021/10/09 01:23:17;;;;;;;16.88;9.38;;;;;;;;;;5053894;28;20495;-49
2021/10/09 01:25:43;;;;;;;17.95;10.68;;;;;;;;;;5053229;28;20507;-49
2021/10/09 01:28:09;;;;;;;18.65;9.73;;;;;;;;;;5054051;28;20029;-51
2021/10/09 01:30:38;;;;;;;13.57;8.65;;;;;;;;;;5054016;28;20465;-49
2021/10/09 01:33:04;;;;;;;15.73;11.10;;;;;;;;;;5053863;28;20057;-54
2021/10/09 01:35:31;;;;;;;19.40;10.95;;;;;;;;;;5054181;28;20100;-49
2021/10/09 01:37:57;;;;;;;16.63;9.27;;;;;;;;;;5053949;28;20032;-52
2021/10/09 01:40:23;;;;;;;26.20;14.57;;;;;;;;;;5054069;28;20020;-50
2021/10/09 01:42:49;;;;;;;23.50;14.63;;;;;;;;;;5053860;28;20032;-54
2021/10/09 01:45:20;;;;;;;16.27;9.85;;;;;;;;;;5053893;28;20017;-49
2021/10/09 01:47:46;;;;;;;23.83;14.15;;;;;;;;;;5053685;28;20039;-55
2021/10/09 01:50:13;;;;;;;26.13;15.23;;;;;;;;;;5053631;28;20021;-55
2021/10/09 01:52:39;;;;;;;27.15;13.95;;;;;;;;;;5053979;28;20079;-49
2021/10/09 01:55:08;;;;;;;19.50;11.00;;;;;;;;;;5053523;28;20056;-50
2021/10/09 01:57:34;;;;;;;15.98;9.57;;;;;;;;;;5053688;28;20021;-49
2021/10/09 02:00:00;;;;;;;12.35;8.32;;;;;;;;;;5053492;28;20025;-49
2021/10/09 02:02:26;;;;;;;12.95;8.35;;;;;;;;;;5053345;28;20096;-50
2021/10/09 02:04:52;;;;;;;11.75;7.50;;;;;;;;;;5053648;28;20433;-49
2021/10/09 02:07:22;;;;;;;14.25;9.13;;;;;;;;;;5053483;28;20090;-53
2021/10/09 02:09:51;;;;;;;13.75;8.18;;;;;;;;;;5053316;28;20024;-52
2021/10/09 02:12:17;;;;;;;13.93;6.63;;;;;;;;;;5053369;28;20365;-51
2021/10/09 02:27:41;;;;;;;8.77;5.72;;;;;;;;;;5011220;28;20408;-49
2021/10/09 02:30:08;;;;;;;11.95;5.95;;;;;;;;;;5011341;28;20042;-54
2021/10/09 02:32:34;;;;;;;13.63;7.60;;;;;;;;;;5011333;28;20509;-49
2021/10/09 02:35:00;;;;;;;14.63;8.13;;;;;;;;;;5011637;28;20096;-48
2021/10/09 02:37:27;;;;;;;6.97;4.50;;;;;;;;;;5011184;28;20033;-50
2021/10/09 02:39:53;;;;;;;16.35;8.10;;;;;;;;;;5011238;28;20038;-49
2021/10/09 02:42:19;;;;;;;10.05;5.88;;;;;;;;;;5011391;28;20026;-49
2021/10/09 02:44:47;;;;;;;13.90;7.13;;;;;;;;;;5011276;28;20042;-49
2021/10/09 02:47:13;;;;;;;9.07;4.10;;;;;;;;;;5011271;28;20152;-55
2021/10/09 02:49:39;;;;;;;7.80;3.85;;;;;;;;;;5011428;28;20036;-56
2021/10/09 02:52:05;;;;;;;6.88;3.90;;;;;;;;;;5011104;28;20431;-50
2021/10/09 02:54:31;;;;;;;7.25;4.57;;;;;;;;;;5011152;28;20556;-49
2021/10/09 02:57:05;;;;;;;8.23;5.47;;;;;;;;;;5011163;28;20037;-49
2021/10/09 02:59:31;;;;;;;11.57;5.82;;;;;;;;;;5011093;28;20038;-54
2021/10/09 03:01:57;;;;;;;10.40;5.75;;;;;;;;;;5011051;28;20049;-50
2021/10/09 03:04:25;;;;;;;11.48;6.32;;;;;;;;;;5024978;28;20400;-49
2021/10/09 03:06:51;;;;;;;8.10;5.25;;;;;;;;;;5051055;28;20390;-49
2021/10/09 03:09:17;;;;;;;11.57;6.03;;;;;;;;;;5052744;28;20033;-52
2021/10/09 03:11:43;;;;;;;8.40;4.60;;;;;;;;;;5052607;28;20025;-49
2021/10/09 03:14:09;;;;;;;7.88;4.53;;;;;;;;;;5052654;28;20029;-52
2021/10/09 03:16:40;;;;;;;5.72;3.83;;;;;;;;;;5052908;28;20056;-49
2021/10/09 03:19:06;;;;;;;7.55;5.15;;;;;;;;;;5052816;28;20047;-49
2021/10/09 03:21:32;;;;;;;10.00;5.72;;;;;;;;;;5053255;28;20031;-49
2021/10/09 03:23:58;;;;;;;6.05;4.25;;;;;;;;;;5052294;28;20551;-49
2021/10/09 03:26:24;;;;;;;13.68;7.18;;;;;;;;;;5052599;28;20033;-49
2021/10/09 03:28:50;;;;;;;14.27;7.90;;;;;;;;;;5052454;28;20033;-50
2021/10/09 03:31:16;;;;;;;10.20;5.53;;;;;;;;;;5052713;28;20029;-49
2021/10/09 03:33:43;;;;;;;6.10;4.38;;;;;;;;;;5052765;28;20035;-50
2021/10/09 03:36:09;;;;;;;18.33;9.20;;;;;;;;;;5052635;28;20021;-49
2021/10/09 03:38:38;;;;;;;13.52;6.72;;;;;;;;;;5052488;28;20021;-50
2021/10/09 03:41:10;;;;;;;8.30;5.43;;;;;;;;;;5052579;28;20025;-49
2021/10/09 03:43:37;;;;;;;6.13;3.95;;;;;;;;;;5052325;28;20112;-49
2021/10/09 03:46:11;;;;;;;9.30;4.60;;;;;;;;;;5052479;28;20032;-49
2021/10/09 03:53:48;;;;;;;9.10;5.03;;;;;;;;;;5055697;28;20091;-51
2021/10/09 03:56:14;;;;;;;9.00;4.43;;;;;;;;;;5055978;28;20423;-49
2021/10/09 03:58:40;;;;;;;4.80;3.60;;;;;;;;;;5055807;28;20046;-49
2021/10/09 04:01:06;;;;;;;7.45;3.90;;;;;;;;;;5056057;28;20477;-54
2021/10/09 04:03:32;;;;;;;9.48;4.78;;;;;;;;;;5055701;28;20033;-50
2021/10/09 04:05:58;;;;;;;10.85;6.15;;;;;;;;;;5055818;28;20029;-50
2021/10/09 04:08:24;;;;;;;8.05;4.30;;;;;;;;;;5055607;28;20068;-49
2021/10/09 04:10:50;;;;;;;6.70;4.45;;;;;;;;;;5055742;28;20021;-50
2021/10/09 04:13:16;;;;;;;5.95;3.00;;;;;;;;;;5055570;28;20053;-49
2021/10/09 04:15:42;;;;;;;9.88;6.47;;;;;;;;;;5055482;28;20029;-49
2021/10/09 04:18:08;;;;;;;8.35;4.07;;;;;;;;;;5055358;28;20029;-49
2021/10/09 04:20:36;;;;;;;5.82;3.70;;;;;;;;;;5055426;28;20021;-48
2021/10/09 04:23:02;;;;;;;5.63;2.80;;;;;;;;;;5055412;28;20021;-50
2021/10/09 04:25:28;;;;;;;5.60;3.63;;;;;;;;;;5054784;28;20481;-52
2021/10/09 04:27:54;;;;;;;3.97;3.00;;;;;;;;;;5055358;28;20122;-50
2021/10/09 04:30:20;;;;;;;9.05;4.03;;;;;;;;;;5055118;28;20024;-49
2021/10/09 04:32:46;;;;;;;3.75;2.65;;;;;;;;;;5055356;28;20021;-49
2021/10/09 04:35:12;;;;;;;5.68;3.15;;;;;;;;;;5055330;28;20025;-52
2021/10/09 04:37:38;;;;;;;7.78;3.33;;;;;;;;;;5055119;28;20036;-49
2021/10/09 04:40:05;;;;;;;6.10;3.40;;;;;;;;;;5054988;28;20520;-50
2021/10/09 04:42:33;;;;;;;8.95;3.70;;;;;;;;;;5055426;28;20033;-55
2021/10/09 04:44:59;;;;;;;8.05;5.05;;;;;;;;;;5054940;28;20432;-50
2021/10/09 04:47:25;;;;;;;8.00;4.05;;;;;;;;;;5054997;28;20112;-53
2021/10/09 04:49:51;;;;;;;7.35;4.80;;;;;;;;;;5055078;28;20033;-48
2021/10/09 04:52:18;;;;;;;7.15;5.10;;;;;;;;;;5054711;28;20025;-49
2021/10/09 04:54:44;;;;;;;6.38;3.58;;;;;;;;;;5054618;28;20090;-48
2021/10/09 04:57:11;;;;;;;6.53;3.47;;;;;;;;;;5054719;28;20052;-49
2021/10/09 04:59:37;;;;;;;7.95;4.57;;;;;;;;;;5054518;28;20082;-49
2021/10/09 05:02:03;;;;;;;10.77;6.43;;;;;;;;;;5054747;28;20032;-49
2021/10/09 05:04:29;;;;;;;15.00;8.50;;;;;;;;;;5054556;28;20021;-49
2021/10/09 05:06:55;;;;;;;9.07;5.40;;;;;;;;;;5054461;28;20380;-49
2021/10/09 05:09:21;;;;;;;11.45;5.00;;;;;;;;;;5054409;28;20033;-50
2021/10/09 05:11:47;;;;;;;8.65;4.30;;;;;;;;;;5054461;28;20029;-49
2021/10/09 05:14:13;;;;;;;8.90;3.80;;;;;;;;;;5054523;28;20029;-50
2021/10/09 05:16:39;;;;;;;7.43;4.32;;;;;;;;;;5054466;28;20096;-51
2021/10/09 05:19:06;;;;;;;9.43;4.03;;;;;;;;;;5054283;28;20017;-50
2021/10/09 05:21:32;;;;;;;9.38;4.72;;;;;;;;;;5054179;28;20029;-48
2021/10/09 05:23:58;;;;;;;11.40;5.82;;;;;;;;;;5053897;28;20052;-51
2021/10/09 05:26:24;;;;;;;12.10;6.82;;;;;;;;;;5053990;28;20128;-52
2021/10/09 05:28:51;;;;;;;8.48;5.05;;;;;;;;;;5053840;28;20032;-55
2021/10/09 05:31:23;;;;;;;8.27;4.30;;;;;;;;;;5054114;28;20049;-55
2021/10/09 05:33:50;;;;;;;5.55;3.78;;;;;;;;;;5054039;28;20104;-56
2021/10/09 05:36:16;;;;;;;8.68;4.72;;;;;;;;;;5054107;28;20025;-48
2021/10/09 05:38:42;;;;;;;9.48;4.53;;;;;;;;;;5054142;28;20047;-55
2021/10/09 05:41:08;;;;;;;8.90;4.95;;;;;;;;;;5053702;28;20032;-48
2021/10/09 05:43:35;;;;;;;13.65;6.95;;;;;;;;;;5053073;28;20060;-51
2021/10/09 05:46:03;;;;;;;9.65;5.70;;;;;;;;;;5052355;28;20075;-50
2021/10/09 05:48:32;;;;;;;12.45;7.70;;;;;;;;;;5052358;28;20394;-49
2021/10/09 05:56:28;;;;;;;10.40;6.47;;;;;;;;;;5051438;28;20029;-50
2021/10/09 06:32:11;;;;;;;50.78;24.75;;;;;;;;;;5049554;28;20163;-48
2021/10/09 07:01:35;;;;;;;17.00;6.53;;;;;;;;;;5048927;28;20037;-49
2021/10/09 07:04:01;;;;;;;19.75;9.98;;;;;;;;;;5051400;28;20025;-48
2021/10/09 07:06:27;;;;;;;10.80;5.25;;;;;;;;;;5051189;28;20116;-48
2021/10/09 07:08:53;;;;;;;16.00;8.45;;;;;;;;;;5048440;28;20025;-48
2021/10/09 07:11:19;;;;;;;18.75;12.80;;;;;;;;;;5051178;28;20013;-48
2021/10/09 07:13:45;;;;;;;20.70;15.40;;;;;;;;;;5051314;28;20083;-54
2021/10/09 07:16:11;;;;;;;18.73;14.13;;;;;;;;;;5051785;28;20025;-52
2021/10/09 07:18:38;;;;;;;24.88;16.55;;;;;;;;;;5051258;28;20025;-55
2021/10/09 07:21:04;;;;;;;20.17;12.77;;;;;;;;;;5052020;28;20021;-50
2021/10/09 07:23:30;;;;;;;21.73;13.50;;;;;;;;;;5052079;28;20029;-51
2021/10/09 07:25:56;;;;;;;23.38;12.05;;;;;;;;;;5055522;28;20481;-53
2021/10/09 07:28:22;;;;;;;18.65;9.75;;;;;;;;;;5055083;28;20445;-49
2021/10/09 07:30:48;;;;;;;22.17;11.30;;;;;;;;;;5054776;28;20087;-56
2021/10/09 07:33:17;;;;;;;26.75;14.18;;;;;;;;;;5054760;28;20484;-48
2021/10/09 07:35:43;;;;;;;15.52;8.55;;;;;;;;;;5054923;28;20031;-48
2021/10/09 07:38:11;;;;;;;22.58;10.43;;;;;;;;;;5054935;28;20020;-50
2021/10/09 07:40:40;;;;;;;30.67;13.77;;;;;;;;;;5054471;28;20025;-51
2021/10/09 07:43:08;;;;;;;27.98;14.35;;;;;;;;;;5054533;28;20028;-51
2021/10/09 07:45:34;;;;;;;27.02;15.23;;;;;;;;;;5051832;28;20021;-49
2021/10/09 07:48:00;;;;;;;40.70;24.15;;;;;;;;;;5054772;28;20029;-49
2021/10/09 07:50:26;;;;;;;64.00;34.25;;;;;;;;;;5055283;28;20029;-50
2021/10/09 07:52:52;;;;;;;97.13;50.40;;;;;;;;;;5055519;28;20017;-49
2021/10/09 07:55:18;;;;;;;69.03;34.95;;;;;;;;;;5055389;28;20029;-49
2021/10/09 07:57:45;;;;;;;37.70;22.73;;;;;;;;;;5055556;28;20112;-49
2021/10/09 08:00:13;;;;;;;26.52;16.17;;;;;;;;;;5055387;28;20056;-50
2021/10/09 08:02:45;;;;;;;28.23;14.27;;;;;;;;;;5055516;28;20028;-50
2021/10/09 08:05:11;;;;;;;17.13;10.45;;;;;;;;;;5055573;28;20017;-50
2021/10/09 08:07:37;;;;;;;14.63;8.52;;;;;;;;;;5055286;28;20017;-50
2021/10/09 08:10:04;;;;;;;13.48;8.05;;;;;;;;;;5055290;28;20025;-51
2021/10/09 08:12:30;;;;;;;11.30;7.78;;;;;;;;;;5054304;28;20364;-52
2021/10/09 08:14:56;;;;;;;19.92;10.20;;;;;;;;;;5055618;28;20083;-50
2021/10/09 08:17:22;;;;;;;18.15;10.80;;;;;;;;;;5055630;28;20388;-50
2021/10/09 08:19:48;;;;;;;14.38;9.75;;;;;;;;;;5055669;28;20024;-50
2021/10/09 08:22:14;;;;;;;21.58;12.43;;;;;;;;;;5055316;28;20473;-49
2021/10/09 08:27:18;;;;;;;19.55;11.45;;;;;;;;;;5055222;28;20146;-48
2021/10/09 08:35:34;;;;;;;69.68;39.75;;;;;;;;;;4992193;28;20045;-49
2021/10/09 08:40:48;;;;;;;40.75;25.48;;;;;;;;;;4992430;28;20516;-49
2021/10/09 08:43:14;;;;;;;32.78;21.95;;;;;;;;;;4976184;28;20066;-49
2021/10/09 08:45:40;;;;;;;15.93;10.57;;;;;;;;;;4992342;28;20026;-51
2021/10/09 08:48:06;;;;;;;17.73;9.63;;;;;;;;;;4992215;28;20030;-48
2021/10/09 08:50:33;;;;;;;21.77;11.80;;;;;;;;;;4992923;28;20490;-52
2021/10/09 08:53:07;;;;;;;22.92;11.90;;;;;;;;;;4992269;28;20037;-49
2021/10/09 08:55:35;;;;;;;26.45;12.77;;;;;;;;;;4990327;28;20503;-50
2021/10/09 08:58:13;;;;;;;24.35;12.57;;;;;;;;;;4991988;28;20506;-49
2021/10/09 09:01:02;;;;;;;21.98;11.43;;;;;;;;;;4991904;28;20606;-49
2021/10/09 09:04:02;;;;;;;22.23;11.35;;;;;;;;;;4989586;28;20046;-49
2021/10/09 09:31:56;;;;;;;47.63;25.25;;;;;;;;;;4992599;28;20594;-48
2021/10/09 09:40:03;;;;;;;20.70;11.98;;;;;;;;;;4952678;29;20027;-49
2021/10/09 09:42:29;;;;;;;37.10;20.08;;;;;;;;;;4960901;28;20038;-54
2021/10/09 09:44:56;;;;;;;34.67;18.42;;;;;;;;;;5011423;28;20034;-49
2021/10/09 09:47:35;;;;;;;40.55;22.15;;;;;;;;;;5010561;28;20018;-49
2021/10/09 09:50:05;;;;;;;44.92;24.17;;;;;;;;;;5011193;28;20040;-48
2021/10/09 09:52:35;;;;;;;43.78;22.60;;;;;;;;;;5011283;28;20022;-48
2021/10/09 09:55:02;;;;;;;16.23;8.80;;;;;;;;;;5010981;28;20073;-56
2021/10/09 09:57:29;;;;;;;29.15;14.25;;;;;;;;;;5011157;28;20030;-51
2021/10/09 09:59:56;;;;;;;17.30;10.20;;;;;;;;;;5011006;28;20025;-49
2021/10/09 10:02:24;;;;;;;22.33;11.93;;;;;;;;;;5011139;28;20429;-57
2021/10/09 10:04:50;;;;;;;19.17;10.70;;;;;;;;;;5011166;28;20421;-57
2021/10/09 10:07:17;;;;;;;29.85;18.02;;;;;;;;;;5011123;28;20144;-51
2021/10/09 10:09:45;;;;;;;40.30;23.20;;;;;;;;;;5010679;28;20034;-47
2021/10/09 10:12:11;;;;;;;32.42;16.63;;;;;;;;;;5009654;28;20161;-47
2021/10/09 10:14:38;;;;;;;47.33;24.25;;;;;;;;;;5043487;28;20064;-47
2021/10/09 10:17:04;;;;;;;23.08;11.65;;;;;;;;;;5051983;28;20024;-49
2021/10/09 10:19:49;;;;;;;49.33;23.63;;;;;;;;;;5051825;28;20025;-57
2021/10/09 10:22:15;;;;;;;19.13;9.68;;;;;;;;;;5051412;28;20025;-48
2021/10/09 10:24:43;;;;;;;25.45;11.18;;;;;;;;;;5052726;28;20045;-59
2021/10/09 10:27:29;;;;;;;21.77;9.95;;;;;;;;;;5053155;28;20075;-49
2021/10/09 10:30:14;;;;;;;7.93;4.20;;;;;;;;;;5051579;28;20047;-47
2021/10/09 10:32:41;;;;;;;6.30;3.60;;;;;;;;;;5052989;28;20033;-48
2021/10/09 10:35:26;;;;;;;7.10;4.70;;;;;;;;;;5052826;28;20082;-64
2021/10/09 10:37:52;;;;;;;9.82;5.93;;;;;;;;;;5053095;28;20105;-47
2021/10/09 10:40:36;;;;;;;4.78;2.90;;;;;;;;;;5052846;28;20021;-54
2021/10/09 10:43:22;;;;;;;8.00;5.00;;;;;;;;;;5053263;28;20037;-46
2021/10/09 10:45:48;;;;;;;17.35;9.27;;;;;;;;;;5052763;28;20021;-58
2021/10/09 10:48:34;;;;;;;7.60;5.10;;;;;;;;;;5052729;28;20108;-47
2021/10/09 10:51:13;;;;;;;11.07;5.97;;;;;;;;;;5052736;28;20029;-54
2021/10/09 10:54:05;;;;;;;17.88;11.38;;;;;;;;;;5052700;28;20029;-48
2021/10/09 10:56:31;;;;;;;17.98;11.27;;;;;;;;;;5052728;28;20025;-47
2021/10/09 10:59:16;;;;;;;8.75;5.20;;;;;;;;;;5055875;28;20076;-47
2021/10/09 11:01:42;;;;;;;8.95;6.95;;;;;;;;;;5056645;28;20087;-62
2021/10/09 11:04:08;;;;;;;13.65;7.47;;;;;;;;;;5056728;28;20021;-47
2021/10/09 11:06:34;;;;;;;10.70;5.93;;;;;;;;;;5056535;28;20027;-47
2021/10/09 11:09:02;;;;;;;11.80;6.70;;;;;;;;;;5056444;28;20094;-51
2021/10/09 11:11:42;;;;;;;11.75;6.32;;;;;;;;;;5056434;28;20397;-50
2021/10/09 11:14:08;;;;;;;20.05;10.60;;;;;;;;;;5056434;28;20487;-49
2021/10/09 11:16:34;;;;;;;17.35;9.32;;;;;;;;;;5056419;28;20033;-50
2021/10/09 11:19:03;;;;;;;21.23;11.63;;;;;;;;;;5056830;28;20047;-48
2021/10/09 11:21:31;;;;;;;20.95;10.10;;;;;;;;;;5056292;28;20020;-47
2021/10/09 11:23:58;;;;;;;23.60;9.82;;;;;;;;;;5056273;28;20048;-47
2021/10/09 11:26:28;;;;;;;21.02;11.05;;;;;;;;;;5056272;28;20041;-48
2021/10/09 11:29:01;;;;;;;29.50;11.93;;;;;;;;;;5056174;28;20104;-49
2021/10/09 11:31:28;;;;;;;18.40;10.25;;;;;;;;;;5056189;28;20025;-48
2021/10/09 11:33:57;;;;;;;27.00;15.35;;;;;;;;;;5056307;28;20025;-46
2021/10/09 11:36:24;;;;;;;22.55;12.95;;;;;;;;;;5056024;28;20025;-46
2021/10/09 11:39:00;;;;;;;14.40;8.60;;;;;;;;;;5055914;28;20048;-51
2021/10/09 11:41:26;;;;;;;18.40;11.20;;;;;;;;;;5055949;28;20029;-48
2021/10/09 11:44:05;;;;;;;16.23;9.20;;;;;;;;;;5055990;28;20408;-47
2021/10/09 11:47:17;;;;;;;19.60;10.05;;;;;;;;;;5055642;28;20033;-48
2021/10/09 11:55:17;;;;;;;12.50;7.80;;;;;;;;;;5055638;28;20043;-48
2021/10/09 11:57:43;;;;;;;12.35;7.45;;;;;;;;;;5056023;28;20110;-48
2021/10/09 12:00:28;;;;;;;15.45;8.90;;;;;;;;;;5055892;28;20021;-58
2021/10/09 12:02:54;;;;;;;14.88;9.15;;;;;;;;;;5055849;28;20036;-55
2021/10/09 12:05:20;;;;;;;15.35;9.05;;;;;;;;;;5055694;28;20426;-48
2021/10/09 12:08:14;;;;;;;11.82;6.70;;;;;;;;;;5055548;28;20065;-47
2021/10/09 12:10:40;;;;;;;12.43;7.75;;;;;;;;;;5054901;28;20040;-52
2021/10/09 12:13:06;;;;;;;15.30;9.13;;;;;;;;;;5055693;28;20033;-48
2021/10/09 12:15:33;;;;;;;14.85;9.13;;;;;;;;;;5055383;28;20017;-55
2021/10/09 12:18:02;;;;;;;14.23;8.63;;;;;;;;;;5055735;28;20042;-47
2021/10/09 12:20:28;;;;;;;18.35;10.55;;;;;;;;;;5055829;28;20024;-47
2021/10/09 12:22:58;;;;;;;19.40;10.45;;;;;;;;;;5055895;28;20017;-48
2021/10/09 12:25:26;;;;;;;10.38;7.60;;;;;;;;;;5055464;28;20052;-48
2021/10/09 12:27:55;;;;;;;14.52;9.45;;;;;;;;;;5055588;28;20112;-47
2021/10/09 12:30:22;;;;;;;12.50;8.15;;;;;;;;;;5055598;28;20035;-48
2021/10/09 12:32:53;;;;;;;18.95;8.75;;;;;;;;;;5055291;28;20021;-48
2021/10/09 12:35:31;;;;;;;17.35;9.82;;;;;;;;;;5055613;28;20029;-47
2021/10/09 12:38:04;;;;;;;18.75;10.95;;;;;;;;;;5055718;28;20021;-47
2021/10/09 12:40:39;;;;;;;16.52;9.85;;;;;;;;;;5055282;28;20021;-47
2021/10/09 12:43:08;;;;;;;18.67;11.52;;;;;;;;;;5055533;28;20512;-48
2021/10/09 12:45:34;;;;;;;26.33;14.55;;;;;;;;;;5055005;28;20051;-47
2021/10/09 12:48:00;;;;;;;29.70;19.50;;;;;;;;;;5055464;28;20021;-47
2021/10/09 12:50:28;;;;;;;31.67;16.70;;;;;;;;;;5055260;28;20048;-47
2021/10/09 12:52:55;;;;;;;29.48;17.33;;;;;;;;;;5055078;28;20499;-49
2021/10/09 12:55:27;;;;;;;27.25;15.02;;;;;;;;;;5055077;28;20033;-49
2021/10/09 12:57:53;;;;;;;;;;;;;;;;;;5055552;28;20044;-57
2021/10/09 13:00:19;;;;;;;27.35;15.07;;;;;;;;;;5055090;28;20388;-57
2021/10/09 13:02:45;;;;;;;30.27;14.93;;;;;;;;;;5054833;28;20091;-58
2021/10/09 13:05:12;;;;;;;22.20;13.52;;;;;;;;;;5054916;28;20055;-61
2021/10/09 13:07:38;;;;;;;18.98;12.43;;;;;;;;;;5054759;28;20100;-58
2021/10/09 13:10:05;;;;;;;19.70;12.77;;;;;;;;;;5054694;28;20055;-49
2021/10/09 13:12:31;;;;;;;18.42;12.85;;;;;;;;;;5054606;28;20063;-58
2021/10/09 13:15:00;;;;;;;22.10;12.07;;;;;;;;;;5054513;28;20477;-58
2021/10/09 13:17:26;;;;;;;20.05;12.68;;;;;;;;;;5054617;28;20025;-54
2021/10/09 13:19:52;;;;;;;20.15;11.85;;;;;;;;;;5054680;28;20128;-59
2021/10/09 13:22:18;;;;;;;20.85;11.32;;;;;;;;;;5054648;28;20021;-59
2021/10/09 13:24:44;;;;;;;24.38;11.50;;;;;;;;;;5054172;28;20059;-51
2021/10/09 13:27:10;;;;;;;20.48;12.65;;;;;;;;;;5054488;28;20067;-58
2021/10/09 13:29:36;;;;;;;22.50;13.02;;;;;;;;;;5054483;28;20037;-52
2021/10/09 13:32:03;;;;;;;21.83;13.18;;;;;;;;;;5054382;28;20064;-58
2021/10/09 13:34:29;;;;;;;27.95;13.98;;;;;;;;;;5054156;28;20032;-51
2021/10/09 13:36:57;;;;;;;30.30;14.30;;;;;;;;;;5054273;28;20021;-55
2021/10/09 13:39:23;;;;;;;29.13;15.02;;;;;;;;;;5054482;28;20021;-57
2021/10/09 13:41:50;;;;;;;33.17;18.02;;;;;;;;;;5054317;28;20100;-59
2021/10/09 13:44:16;;;;;;;22.55;15.15;;;;;;;;;;5053700;28;20029;-49
2021/10/09 13:46:44;;;;;;;24.08;14.70;;;;;;;;;;5053990;28;20025;-51
2021/10/09 13:49:11;;;;;;;22.00;13.75;;;;;;;;;;5053953;28;20044;-59
2021/10/09 13:51:37;;;;;;;23.08;14.27;;;;;;;;;;5054089;28;20025;-58
2021/10/09 13:54:03;;;;;;;25.35;15.20;;;;;;;;;;5054038;28;20033;-58
2021/10/09 13:56:29;;;;;;;27.45;14.93;;;;;;;;;;5054041;28;20497;-55
2021/10/09 13:58:55;;;;;;;24.80;15.82;;;;;;;;;;5053823;28;20480;-58
2021/10/09 14:01:22;;;;;;;27.60;17.38;;;;;;;;;;5053954;28;20025;-59
2021/10/09 14:03:48;;;;;;;34.90;18.77;;;;;;;;;;5053711;28;20036;-53
2021/10/09 14:06:14;;;;;;;33.17;19.13;;;;;;;;;;5053692;28;20423;-53
2021/10/09 14:08:40;;;;;;;30.88;18.00;;;;;;;;;;5053768;28;20033;-52
2021/10/09 14:11:07;;;;;;;29.65;17.92;;;;;;;;;;5053964;28;20025;-54
2021/10/09 14:13:33;;;;;;;33.70;18.58;;;;;;;;;;5053561;28;20025;-53
2021/10/09 14:16:00;;;;;;;33.75;20.20;;;;;;;;;;5053554;28;20025;-59
2021/10/09 14:18:26;;;;;;;35.10;21.13;;;;;;;;;;5053584;28;20031;-47
2021/10/09 14:20:53;;;;;;;36.50;21.48;;;;;;;;;;5053582;28;20025;-47
2021/10/09 14:23:22;;;;;;;35.20;18.10;;;;;;;;;;5053255;28;20162;-48
2021/10/09 14:25:53;;;;;;;28.85;17.08;;;;;;;;;;5053509;28;20416;-47
2021/10/09 14:28:19;;;;;;;32.55;20.33;;;;;;;;;;5053368;28;20079;-47
2021/10/09 14:30:46;;;;;;;32.58;18.90;;;;;;;;;;5053525;28;20063;-47
2021/10/09 14:33:12;;;;;;;27.15;15.98;;;;;;;;;;5052884;28;20480;-47
2021/10/09 14:35:38;;;;;;;29.45;17.60;;;;;;;;;;5053411;28;20043;-47
2021/10/09 14:38:05;;;;;;;31.80;18.35;;;;;;;;;;5053323;28;20025;-47
2021/10/09 14:40:34;;;;;;;27.17;18.40;;;;;;;;;;5053406;28;20166;-47
2021/10/09 14:43:00;;;;;;;26.88;16.48;;;;;;;;;;5053202;28;20021;-49
2021/10/09 14:45:27;;;;;;;24.80;16.58;;;;;;;;;;5053303;28;20056;-47
2021/10/09 14:47:58;;;;;;;28.60;17.55;;;;;;;;;;5053292;28;20465;-47
2021/10/09 15:17:48;;;;;;;54.67;32.70;;;;;;;;;;4990683;28;20041;-45
2021/10/09 15:20:15;;;;;;;64.22;37.17;;;;;;;;;;4990941;28;20046;-47
2021/10/09 15:22:41;;;;;;;59.50;36.67;;;;;;;;;;4990807;28;20038;-48
2021/10/09 15:25:07;;;;;;;55.78;31.27;;;;;;;;;;4990442;28;20050;-47
2021/10/09 15:27:33;;;;;;;48.30;28.58;;;;;;;;;;4990770;28;20049;-48
2021/10/09 15:29:59;;;;;;;57.47;32.75;;;;;;;;;;4990719;28;20042;-48
2021/10/09 15:32:26;;;;;;;76.53;44.00;;;;;;;;;;4991002;28;20394;-46
2021/10/09 15:34:52;;;;;;;65.93;38.33;;;;;;;;;;5024637;28;20040;-47
2021/10/09 15:37:18;;;;;;;60.63;36.67;;;;;;;;;;5051995;28;20025;-47
2021/10/09 15:39:45;;;;;;;62.67;38.20;;;;;;;;;;5051936;28;20477;-46
2021/10/09 15:42:13;;;;;;;66.40;38.05;;;;;;;;;;5052206;28;20025;-47
2021/10/09 15:44:40;;;;;;;56.55;36.72;;;;;;;;;;5052743;28;20494;-48
2021/10/09 15:47:08;;;;;;;125.22;72.13;;;;;;;;;;5055764;28;20028;-47
2021/10/09 15:49:34;;;;;;;97.90;55.05;;;;;;;;;;5055422;28;20033;-47
2021/10/09 15:52:00;;;;;;;68.40;41.83;;;;;;;;;;5055401;28;20082;-47
2021/10/09 15:54:26;;;;;;;40.25;25.25;;;;;;;;;;5055153;28;20105;-46
2021/10/09 15:56:52;;;;;;;44.33;26.33;;;;;;;;;;5055400;28;20469;-47
2021/10/09 15:59:18;;;;;;;49.40;28.27;;;;;;;;;;5055576;28;20032;-48
2021/10/09 16:01:45;;;;;;;48.95;31.38;;;;;;;;;;5054995;28;20017;-51
2021/10/09 16:04:11;;;;;;;59.42;36.20;;;;;;;;;;5051554;28;20021;-48
2021/10/09 16:06:37;;;;;;;52.35;32.67;;;;;;;;;;5054293;28;20029;-49
2021/10/09 16:09:04;;;;;;;119.38;67.35;;;;;;;;;;5054192;28;20090;-47
2021/10/09 16:11:30;;;;;;;96.13;55.95;;;;;;;;;;5054367;28;20049;-47
2021/10/09 16:13:58;;;;;;;68.25;40.05;;;;;;;;;;5055356;28;20032;-48
2021/10/09 16:16:24;;;;;;;62.60;38.35;;;;;;;;;;5055017;28;20025;-49
2021/10/09 16:18:50;;;;;;;82.47;44.40;;;;;;;;;;5055302;28;20017;-47
2021/10/09 16:21:16;;;;;;;71.15;40.90;;;;;;;;;;5052429;28;20043;-48
2021/10/09 16:23:42;;;;;;;95.43;55.20;;;;;;;;;;5054753;28;20409;-47
2021/10/09 16:26:08;;;;;;;51.50;32.10;;;;;;;;;;5054794;28;20028;-48
2021/10/09 16:28:34;;;;;;;44.92;26.75;;;;;;;;;;5054779;28;20039;-48
2021/10/09 16:31:01;;;;;;;76.88;44.70;;;;;;;;;;5054836;28;20086;-47
2021/10/09 16:33:27;;;;;;;36.97;22.63;;;;;;;;;;5054941;28;20033;-58
2021/10/09 16:35:53;;;;;;;38.05;23.27;;;;;;;;;;5054732;28;20059;-48
2021/10/09 16:38:21;;;;;;;36.00;23.33;;;;;;;;;;5054677;28;20021;-48
2021/10/09 16:40:47;;;;;;;55.83;33.22;;;;;;;;;;5054649;28;20059;-49
2021/10/09 16:43:13;;;;;;;111.65;57.00;;;;;;;;;;5054531;28;20487;-48
2021/10/09 16:45:39;;;;;;;49.80;31.80;;;;;;;;;;5054547;28;20017;-53
2021/10/09 16:48:05;;;;;;;46.53;27.48;;;;;;;;;;5043924;28;20942;-47
2021/10/09 16:50:33;;;;;;;42.83;26.45;;;;;;;;;;5027908;28;20033;-48
2021/10/09 16:52:59;;;;;;;32.50;20.10;;;;;;;;;;5027777;28;20508;-47
2021/10/09 16:55:26;;;;;;;35.60;21.13;;;;;;;;;;5027370;28;20037;-48
2021/10/09 16:57:52;;;;;;;42.03;24.10;;;;;;;;;;5027847;28;20036;-48
2021/10/09 17:00:18;;;;;;;46.95;23.23;;;;;;;;;;5027914;28;21483;-56
2021/10/09 17:02:44;;;;;;;38.60;21.60;;;;;;;;;;5027173;28;20032;-49
2021/10/09 17:05:10;;;;;;;35.90;16.25;;;;;;;;;;5027306;28;20024;-48
2021/10/09 17:07:38;;;;;;;33.85;20.40;;;;;;;;;;5027471;28;20845;-47
2021/10/09 17:10:05;;;;;;;69.75;37.35;;;;;;;;;;5027343;28;20446;-48